createdAt,value
2018-07-09T00:00:25.522Z,94.30
2018-07-09T00:01:25.535Z,93.62
2018-07-09T00:02:25.549Z,93.87
2018-07-09T00:03:25.575Z,93.62
2018-07-09T00:04:25.635Z,93.53
2018-07-09T00:05:25.606Z,93.43
2018-07-09T00:06:25.621Z,93.24
2018-07-09T00:07:25.641Z,94.49
2018-07-09T00:08:25.659Z,94.78
2018-07-09T00:09:25.671Z,94.68
2018-07-09T00:10:25.719Z,94.87
2018-07-09T00:11:25.711Z,94.30
2018-07-09T00:12:25.731Z,93.15
2018-07-09T00:13:25.743Z,93.62
2018-07-09T00:14:25.763Z,93.82
2018-07-09T00:15:25.778Z,93.82
2018-07-09T00:16:25.803Z,93.82
2018-07-09T00:17:25.815Z,94.40
2018-07-09T00:18:25.836Z,93.91
2018-07-09T00:19:25.852Z,93.82
2018-07-09T00:20:25.872Z,93.62
2018-07-09T00:21:25.885Z,93.43
2018-07-09T00:22:25.902Z,93.53
2018-07-09T00:23:25.924Z,93.72
2018-07-09T00:24:25.937Z,93.53
2018-07-09T00:25:25.961Z,93.82
2018-07-09T00:26:25.975Z,93.82
2018-07-09T00:27:25.995Z,93.53
2018-07-09T00:28:26.013Z,93.53
2018-07-09T00:29:26.035Z,93.38
2018-07-09T00:30:26.050Z,93.05
2018-07-09T00:31:26.066Z,93.24
2018-07-09T00:32:26.080Z,93.05
2018-07-09T00:33:26.102Z,93.05
2018-07-09T00:34:26.121Z,93.09
2018-07-09T00:35:26.206Z,93.24
2018-07-09T00:36:26.155Z,93.05
2018-07-09T00:37:26.174Z,93.15
2018-07-09T00:38:26.192Z,93.00
2018-07-09T00:39:26.209Z,93.00
2018-07-09T00:40:26.226Z,92.22
2018-07-09T00:41:26.325Z,93.38
2018-07-09T00:42:26.257Z,91.89
2018-07-09T00:43:26.279Z,93.43
2018-07-09T00:44:26.293Z,93.24
2018-07-09T00:45:26.313Z,93.05
2018-07-09T00:46:26.333Z,93.15
2018-07-09T00:47:26.420Z,93.05
2018-07-09T00:48:26.365Z,93.05
2018-07-09T00:49:26.381Z,93.72
2018-07-09T00:50:26.405Z,93.82
2018-07-09T00:51:26.417Z,93.62
2018-07-09T00:52:26.439Z,94.49
2018-07-09T00:53:26.501Z,93.72
2018-07-09T00:54:26.476Z,93.72
2018-07-09T00:55:26.493Z,94.10
2018-07-09T00:56:26.512Z,93.58
2018-07-09T00:57:26.528Z,93.29
2018-07-09T00:58:26.548Z,93.53
2018-07-09T00:59:26.564Z,93.10
2018-07-09T01:00:26.577Z,93.19
2018-07-09T01:01:26.594Z,93.29
2018-07-09T01:02:26.617Z,93.48
2018-07-09T01:03:26.630Z,93.91
2018-07-09T01:04:26.658Z,93.62
2018-07-09T01:05:26.720Z,93.72
2018-07-09T01:06:26.740Z,93.53
2018-07-09T01:07:26.706Z,93.82
2018-07-09T01:08:26.725Z,94.01
2018-07-09T01:09:26.737Z,93.72
2018-07-09T01:10:26.758Z,93.82
2018-07-09T01:11:26.777Z,93.72
2018-07-09T01:12:26.860Z,94.20
2018-07-09T01:13:26.811Z,93.43
2018-07-09T01:14:26.828Z,93.33
2018-07-09T01:15:26.866Z,93.24
2018-07-09T01:16:26.862Z,93.15
2018-07-09T01:17:26.886Z,93.05
2018-07-09T01:18:26.912Z,93.05
2018-07-09T01:19:26.917Z,93.05
2018-07-09T01:20:26.951Z,93.33
2018-07-09T01:21:26.951Z,92.95
2018-07-09T01:22:26.983Z,93.24
2018-07-09T01:23:26.995Z,93.24
2018-07-09T01:24:27.003Z,93.15
2018-07-09T01:25:27.021Z,92.95
2018-07-09T01:26:27.044Z,93.05
2018-07-09T01:27:27.058Z,93.00
2018-07-09T01:28:27.077Z,93.00
2018-07-09T01:29:27.092Z,93.24
2018-07-09T01:30:27.115Z,91.89
2018-07-09T01:31:27.135Z,91.75
2018-07-09T01:32:27.149Z,92.66
2018-07-09T01:33:27.167Z,92.66
2018-07-09T01:34:27.184Z,92.28
2018-07-09T01:35:27.200Z,92.28
2018-07-09T01:36:27.215Z,92.95
2018-07-09T01:37:27.236Z,92.76
2018-07-09T01:38:27.250Z,92.76
2018-07-09T01:39:27.266Z,92.08
2018-07-09T01:40:27.288Z,91.85
2018-07-09T01:41:27.310Z,91.66
2018-07-09T01:42:27.324Z,93.00
2018-07-09T01:43:27.359Z,93.48
2018-07-09T01:44:27.354Z,93.38
2018-07-09T01:45:27.380Z,93.29
2018-07-09T01:46:27.392Z,93.19
2018-07-09T01:47:27.414Z,93.19
2018-07-09T01:48:27.426Z,94.06
2018-07-09T01:49:27.476Z,93.87
2018-07-09T01:50:27.467Z,93.63
2018-07-09T01:51:27.479Z,93.34
2018-07-09T01:52:27.499Z,93.91
2018-07-09T01:53:27.520Z,93.05
2018-07-09T01:54:27.533Z,93.44
2018-07-09T01:55:27.580Z,93.82
2018-07-09T01:56:27.573Z,93.53
2018-07-09T01:57:27.592Z,93.38
2018-07-09T01:58:27.609Z,93.10
2018-07-09T01:59:27.625Z,93.87
2018-07-09T02:00:27.639Z,93.73
2018-07-09T02:01:27.657Z,93.63
2018-07-09T02:02:27.674Z,94.01
2018-07-09T02:03:27.696Z,93.73
2018-07-09T02:04:27.711Z,93.91
2018-07-09T02:05:27.727Z,93.15
2018-07-09T02:06:27.744Z,93.34
2018-07-09T02:07:27.764Z,93.34
2018-07-09T02:08:27.784Z,93.53
2018-07-09T02:09:27.796Z,93.63
2018-07-09T02:10:27.818Z,93.73
2018-07-09T02:11:27.837Z,93.91
2018-07-09T02:12:27.847Z,94.11
2018-07-09T02:13:27.871Z,94.30
2018-07-09T02:14:27.950Z,94.21
2018-07-09T02:15:27.900Z,94.40
2018-07-09T02:16:27.917Z,94.01
2018-07-09T02:17:27.935Z,94.40
2018-07-09T02:18:27.957Z,94.30
2018-07-09T02:19:27.970Z,94.11
2018-07-09T02:20:28.030Z,93.91
2018-07-09T02:21:28.008Z,93.34
2018-07-09T02:22:28.023Z,93.82
2018-07-09T02:23:28.041Z,93.05
2018-07-09T02:24:28.060Z,93.53
2018-07-09T02:25:28.077Z,93.73
2018-07-09T02:26:28.096Z,93.91
2018-07-09T02:27:28.109Z,94.01
2018-07-09T02:28:28.132Z,94.01
2018-07-09T02:29:28.149Z,94.01
2018-07-09T02:30:28.213Z,93.82
2018-07-09T02:31:28.178Z,93.91
2018-07-09T02:32:28.195Z,94.21
2018-07-09T02:33:28.216Z,93.82
2018-07-09T02:34:28.236Z,94.21
2018-07-09T02:35:28.253Z,94.40
2018-07-09T02:36:28.269Z,94.30
2018-07-09T02:37:28.283Z,94.11
2018-07-09T02:38:28.322Z,94.11
2018-07-09T02:39:28.317Z,94.01
2018-07-09T02:40:28.337Z,94.01
2018-07-09T02:41:28.355Z,93.91
2018-07-09T02:42:28.380Z,94.01
2018-07-09T02:43:28.386Z,93.91
2018-07-09T02:44:28.402Z,94.01
2018-07-09T02:45:28.421Z,94.11
2018-07-09T02:46:28.443Z,94.01
2018-07-09T02:47:28.459Z,94.11
2018-07-09T02:48:28.487Z,94.11
2018-07-09T02:49:28.494Z,93.82
2018-07-09T02:50:28.510Z,94.01
2018-07-09T02:51:28.530Z,93.82
2018-07-09T02:52:28.547Z,93.91
2018-07-09T02:53:28.559Z,94.01
2018-07-09T02:54:28.576Z,92.96
2018-07-09T02:55:28.596Z,93.34
2018-07-09T02:56:28.657Z,93.34
2018-07-09T02:57:28.632Z,93.15
2018-07-09T02:58:28.654Z,93.34
2018-07-09T02:59:28.667Z,93.73
2018-07-09T03:00:28.683Z,92.96
2018-07-09T03:01:28.700Z,93.34
2018-07-09T03:02:28.713Z,93.34
2018-07-09T03:03:28.735Z,93.82
2018-07-09T03:04:28.746Z,93.53
2018-07-09T03:05:28.771Z,93.05
2018-07-09T03:06:28.788Z,93.24
2018-07-09T03:07:28.804Z,93.05
2018-07-09T03:08:28.821Z,93.44
2018-07-09T03:09:28.834Z,93.34
2018-07-09T03:10:28.857Z,93.53
2018-07-09T03:11:28.881Z,93.24
2018-07-09T03:12:28.892Z,93.34
2018-07-09T03:13:28.915Z,93.34
2018-07-09T03:14:28.928Z,93.44
2018-07-09T03:15:28.943Z,93.34
2018-07-09T03:16:28.969Z,93.53
2018-07-09T03:17:28.975Z,93.53
2018-07-09T03:18:28.993Z,93.73
2018-07-09T03:19:29.012Z,93.53
2018-07-09T03:20:29.029Z,93.24
2018-07-09T03:21:29.043Z,93.15
2018-07-09T03:22:29.070Z,93.29
2018-07-09T03:23:29.083Z,93.29
2018-07-09T03:24:29.099Z,93.10
2018-07-09T03:25:29.115Z,93.96
2018-07-09T03:26:29.154Z,93.87
2018-07-09T03:27:29.149Z,93.87
2018-07-09T03:28:29.171Z,93.87
2018-07-09T03:29:29.187Z,94.16
2018-07-09T03:30:29.204Z,93.96
2018-07-09T03:31:29.232Z,93.77
2018-07-09T03:32:29.235Z,93.87
2018-07-09T03:33:29.257Z,94.26
2018-07-09T03:34:29.277Z,94.16
2018-07-09T03:35:29.289Z,94.06
2018-07-09T03:36:29.308Z,94.26
2018-07-09T03:37:29.325Z,93.87
2018-07-09T03:38:29.339Z,93.77
2018-07-09T03:39:29.366Z,93.77
2018-07-09T03:40:29.377Z,93.96
2018-07-09T03:41:29.399Z,93.77
2018-07-09T03:42:29.408Z,93.77
2018-07-09T03:43:29.429Z,93.49
2018-07-09T03:44:29.440Z,93.39
2018-07-09T03:45:29.465Z,93.39
2018-07-09T03:46:29.476Z,93.19
2018-07-09T03:47:29.499Z,93.10
2018-07-09T03:48:29.516Z,93.01
2018-07-09T03:49:29.541Z,93.39
2018-07-09T03:50:29.548Z,93.29
2018-07-09T03:51:29.567Z,93.29
2018-07-09T03:52:29.579Z,93.49
2018-07-09T03:53:29.597Z,93.15
2018-07-09T03:54:29.615Z,93.29
2018-07-09T03:55:29.631Z,93.29
2018-07-09T03:56:29.655Z,93.58
2018-07-09T03:57:29.680Z,93.63
2018-07-09T03:58:29.688Z,93.10
2018-07-09T03:59:29.708Z,93.01
2018-07-09T04:00:29.719Z,93.87
2018-07-09T04:01:29.740Z,93.05
2018-07-09T04:02:29.754Z,93.10
2018-07-09T04:03:29.771Z,92.91
2018-07-09T04:04:29.790Z,93.15
2018-07-09T04:05:29.807Z,93.10
2018-07-09T04:06:29.824Z,93.24
2018-07-09T04:07:29.842Z,93.34
2018-07-09T04:08:29.857Z,93.15
2018-07-09T04:09:29.879Z,93.15
2018-07-09T04:10:29.897Z,93.10
2018-07-09T04:11:29.911Z,93.15
2018-07-09T04:12:29.936Z,93.39
2018-07-09T04:13:29.945Z,93.29
2018-07-09T04:14:29.967Z,93.29
2018-07-09T04:15:29.979Z,93.29
2018-07-09T04:16:30.084Z,93.34
2018-07-09T04:17:30.015Z,92.81
2018-07-09T04:18:30.032Z,93.39
2018-07-09T04:19:30.049Z,93.29
2018-07-09T04:20:30.071Z,92.91
2018-07-09T04:21:30.088Z,93.19
2018-07-09T04:22:30.146Z,93.01
2018-07-09T04:23:30.119Z,93.77
2018-07-09T04:24:30.135Z,93.10
2018-07-09T04:25:30.157Z,93.01
2018-07-09T04:26:30.174Z,93.10
2018-07-09T04:27:30.193Z,93.10
2018-07-09T04:28:30.227Z,93.39
2018-07-09T04:29:30.226Z,93.10
2018-07-09T04:30:30.242Z,93.10
2018-07-09T04:31:30.260Z,93.10
2018-07-09T04:32:30.278Z,93.29
2018-07-09T04:33:30.290Z,93.29
2018-07-09T04:34:30.311Z,93.39
2018-07-09T04:35:30.331Z,93.10
2018-07-09T04:36:30.342Z,93.01
2018-07-09T04:37:30.377Z,93.10
2018-07-09T04:38:30.384Z,93.49
2018-07-09T04:39:30.393Z,93.58
2018-07-09T04:40:30.411Z,93.10
2018-07-09T04:41:30.429Z,93.49
2018-07-09T04:42:30.466Z,93.01
2018-07-09T04:43:30.466Z,93.68
2018-07-09T04:44:30.479Z,92.72
2018-07-09T04:45:30.501Z,93.10
2018-07-09T04:46:30.519Z,93.49
2018-07-09T04:47:30.568Z,92.81
2018-07-09T04:48:30.555Z,93.01
2018-07-09T04:49:30.567Z,93.19
2018-07-09T04:50:30.582Z,93.87
2018-07-09T04:51:30.603Z,93.49
2018-07-09T04:52:30.623Z,93.01
2018-07-09T04:53:30.734Z,92.81
2018-07-09T04:54:30.658Z,93.68
2018-07-09T04:55:30.784Z,92.72
2018-07-09T04:56:30.685Z,93.58
2018-07-09T04:57:30.704Z,93.58
2018-07-09T04:58:30.720Z,93.10
2018-07-09T04:59:30.749Z,93.19
2018-07-09T05:00:30.759Z,93.58
2018-07-09T05:01:30.778Z,93.49
2018-07-09T05:02:30.794Z,93.49
2018-07-09T05:03:30.807Z,93.58
2018-07-09T05:04:30.827Z,93.77
2018-07-09T05:05:30.848Z,93.58
2018-07-09T05:06:30.861Z,93.10
2018-07-09T05:07:30.875Z,93.01
2018-07-09T05:08:30.896Z,93.10
2018-07-09T05:09:30.913Z,93.29
2018-07-09T05:10:30.933Z,93.39
2018-07-09T05:11:30.944Z,93.39
2018-07-09T05:12:30.961Z,93.19
2018-07-09T05:13:30.978Z,93.39
2018-07-09T05:14:30.996Z,93.01
2018-07-09T05:15:31.014Z,93.39
2018-07-09T05:16:31.035Z,93.01
2018-07-09T05:17:31.052Z,93.19
2018-07-09T05:18:31.085Z,92.91
2018-07-09T05:19:31.087Z,93.10
2018-07-09T05:20:31.155Z,93.01
2018-07-09T05:21:31.124Z,92.81
2018-07-09T05:22:31.134Z,93.10
2018-07-09T05:23:31.153Z,93.39
2018-07-09T05:24:31.171Z,93.10
2018-07-09T05:25:31.189Z,93.10
2018-07-09T05:26:31.210Z,92.91
2018-07-09T05:27:31.233Z,93.01
2018-07-09T05:28:31.251Z,92.72
2018-07-09T05:29:31.258Z,93.10
2018-07-09T05:30:31.272Z,93.29
2018-07-09T05:31:31.372Z,93.39
2018-07-09T05:32:31.309Z,92.72
2018-07-09T05:33:31.321Z,92.96
2018-07-09T05:34:31.342Z,92.86
2018-07-09T05:35:31.361Z,93.15
2018-07-09T05:36:31.380Z,92.57
2018-07-09T05:37:31.394Z,92.38
2018-07-09T05:38:31.408Z,92.57
2018-07-09T05:39:31.425Z,92.57
2018-07-09T05:40:31.446Z,92.57
2018-07-09T05:41:31.463Z,92.57
2018-07-09T05:42:31.481Z,92.47
2018-07-09T05:43:31.497Z,92.76
2018-07-09T05:44:31.516Z,92.67
2018-07-09T05:45:31.533Z,92.57
2018-07-09T05:46:31.550Z,92.47
2018-07-09T05:47:31.564Z,92.57
2018-07-09T05:48:31.586Z,92.52
2018-07-09T05:49:31.597Z,92.57
2018-07-09T05:50:31.615Z,93.05
2018-07-09T05:51:31.636Z,92.72
2018-07-09T05:52:31.650Z,92.43
2018-07-09T05:53:31.667Z,92.67
2018-07-09T05:54:31.695Z,92.76
2018-07-09T05:55:31.731Z,92.38
2018-07-09T05:56:31.723Z,92.57
2018-07-09T05:57:31.735Z,92.38
2018-07-09T05:58:31.759Z,92.29
2018-07-09T05:59:31.775Z,92.29
2018-07-09T06:00:31.789Z,92.47
2018-07-09T06:01:31.816Z,92.57
2018-07-09T06:02:31.828Z,92.29
2018-07-09T06:03:31.840Z,92.47
2018-07-09T06:04:31.857Z,92.47
2018-07-09T06:05:31.901Z,92.29
2018-07-09T06:06:31.891Z,92.09
2018-07-09T06:07:31.909Z,92.57
2018-07-09T06:08:31.928Z,92.47
2018-07-09T06:09:31.949Z,92.47
2018-07-09T06:10:31.962Z,92.47
2018-07-09T06:11:32.025Z,92.47
2018-07-09T06:12:31.999Z,92.09
2018-07-09T06:13:32.028Z,92.47
2018-07-09T06:14:32.135Z,91.71
2018-07-09T06:15:32.058Z,91.90
2018-07-09T06:16:32.066Z,91.80
2018-07-09T06:17:32.084Z,91.90
2018-07-09T06:18:32.100Z,91.61
2018-07-09T06:19:32.180Z,91.52
2018-07-09T06:20:32.157Z,91.80
2018-07-09T06:21:32.195Z,91.85
2018-07-09T06:22:32.173Z,91.56
2018-07-09T06:23:32.185Z,91.66
2018-07-09T06:24:32.207Z,91.80
2018-07-09T06:25:32.327Z,91.71
2018-07-09T06:26:32.243Z,91.66
2018-07-09T06:27:32.260Z,91.56
2018-07-09T06:28:32.272Z,91.85
2018-07-09T06:29:32.294Z,91.56
2018-07-09T06:30:32.306Z,91.46
2018-07-09T06:31:32.381Z,91.85
2018-07-09T06:32:32.369Z,91.94
2018-07-09T06:33:32.365Z,92.04
2018-07-09T06:34:32.377Z,91.56
2018-07-09T06:35:32.397Z,91.75
2018-07-09T06:36:32.415Z,91.75
2018-07-09T06:37:32.433Z,91.66
2018-07-09T06:38:32.451Z,91.46
2018-07-09T06:39:32.469Z,90.83
2018-07-09T06:40:32.506Z,91.31
2018-07-09T06:41:32.498Z,91.41
2018-07-09T06:42:32.524Z,91.31
2018-07-09T06:43:32.534Z,91.41
2018-07-09T06:44:32.553Z,91.41
2018-07-09T06:45:32.618Z,90.59
2018-07-09T06:46:32.589Z,90.40
2018-07-09T06:47:32.610Z,89.82
2018-07-09T06:48:32.622Z,89.82
2018-07-09T06:49:32.650Z,89.92
2018-07-09T06:50:32.657Z,89.67
2018-07-09T06:51:32.696Z,88.71
2018-07-09T06:52:32.694Z,88.71
2018-07-09T06:53:32.716Z,88.90
2018-07-09T06:54:32.733Z,88.81
2018-07-09T06:55:32.751Z,87.98
2018-07-09T06:56:32.764Z,88.08
2018-07-09T06:57:32.781Z,88.27
2018-07-09T06:58:32.801Z,88.37
2018-07-09T06:59:32.818Z,89.23
2018-07-09T07:00:32.839Z,88.65
2018-07-09T07:01:32.854Z,87.98
2018-07-09T07:02:32.873Z,87.26
2018-07-09T07:03:32.890Z,87.26
2018-07-09T07:04:32.912Z,86.82
2018-07-09T07:05:32.930Z,86.77
2018-07-09T07:06:32.957Z,86.91
2018-07-09T07:07:32.961Z,87.01
2018-07-09T07:08:33.016Z,86.72
2018-07-09T07:09:32.999Z,86.24
2018-07-09T07:10:33.026Z,86.62
2018-07-09T07:11:33.034Z,87.06
2018-07-09T07:12:33.054Z,87.64
2018-07-09T07:13:33.075Z,87.35
2018-07-09T07:14:33.099Z,87.59
2018-07-09T07:15:33.109Z,86.72
2018-07-09T07:16:33.169Z,86.24
2018-07-09T07:17:33.146Z,86.33
2018-07-09T07:18:33.171Z,86.43
2018-07-09T07:19:33.188Z,86.91
2018-07-09T07:20:33.205Z,87.45
2018-07-09T07:21:33.221Z,86.91
2018-07-09T07:22:33.304Z,86.76
2018-07-09T07:23:33.256Z,86.18
2018-07-09T07:24:33.276Z,86.28
2018-07-09T07:25:33.294Z,85.74
2018-07-09T07:26:33.429Z,85.55
2018-07-09T07:27:33.387Z,84.68
2018-07-09T07:28:33.350Z,84.88
2018-07-09T07:29:33.369Z,84.78
2018-07-09T07:30:33.393Z,84.78
2018-07-09T07:31:33.411Z,84.30
2018-07-09T07:32:33.430Z,84.78
2018-07-09T07:33:33.450Z,84.58
2018-07-09T07:34:33.492Z,84.14
2018-07-09T07:35:33.482Z,83.56
2018-07-09T07:36:33.503Z,83.70
2018-07-09T07:37:33.529Z,83.31
2018-07-09T07:38:33.543Z,83.22
2018-07-09T07:39:33.558Z,82.73
2018-07-09T07:40:33.583Z,82.58
2018-07-09T07:41:33.597Z,82.39
2018-07-09T07:42:33.620Z,81.87
2018-07-09T07:43:33.636Z,83.03
2018-07-09T07:44:33.654Z,82.73
2018-07-09T07:45:33.675Z,82.73
2018-07-09T07:46:33.776Z,82.73
2018-07-09T07:47:33.718Z,83.03
2018-07-09T07:48:33.788Z,83.27
2018-07-09T07:49:33.753Z,83.31
2018-07-09T07:50:33.889Z,82.93
2018-07-09T07:51:33.792Z,82.73
2018-07-09T07:52:33.871Z,82.83
2018-07-09T07:53:33.835Z,82.93
2018-07-09T07:54:33.856Z,83.12
2018-07-09T07:55:33.869Z,82.48
2018-07-09T07:56:33.894Z,81.62
2018-07-09T07:57:33.913Z,81.56
2018-07-09T07:58:33.936Z,80.11
2018-07-09T07:59:33.948Z,80.94
2018-07-09T08:00:33.975Z,83.03
2018-07-09T08:01:33.993Z,83.03
2018-07-09T08:02:34.013Z,82.10
2018-07-09T08:03:34.028Z,81.85
2018-07-09T08:04:34.053Z,81.37
2018-07-09T08:05:34.068Z,81.07
2018-07-09T08:06:34.092Z,81.17
2018-07-09T08:07:34.107Z,81.27
2018-07-09T08:08:34.128Z,81.07
2018-07-09T08:09:34.193Z,80.15
2018-07-09T08:10:34.168Z,79.70
2018-07-09T08:11:48.555Z,79.02
2018-07-09T08:13:34.256Z,79.80
2018-07-09T08:14:34.247Z,79.41
2018-07-09T08:15:34.281Z,78.29
2018-07-09T08:16:34.288Z,79.25
2018-07-09T08:17:34.332Z,78.87
2018-07-09T08:18:34.329Z,79.90
2018-07-09T08:19:34.349Z,79.41
2018-07-09T08:20:34.421Z,79.41
2018-07-09T08:21:34.395Z,78.97
2018-07-09T08:22:34.411Z,77.90
2018-07-09T08:23:34.483Z,78.09
2018-07-09T08:24:34.455Z,78.77
2018-07-09T08:25:34.669Z,78.58
2018-07-09T08:26:34.495Z,77.75
2018-07-09T08:27:34.516Z,78.19
2018-07-09T08:28:34.559Z,78.00
2018-07-09T08:29:34.588Z,77.90
2018-07-09T08:30:34.575Z,78.38
2018-07-09T08:31:34.596Z,78.67
2018-07-09T08:32:34.625Z,78.77
2018-07-09T08:33:34.636Z,78.97
2018-07-09T08:34:34.664Z,78.67
2018-07-09T08:35:34.681Z,78.23
2018-07-09T08:36:34.701Z,78.71
2018-07-09T08:37:34.726Z,78.64
2018-07-09T08:38:34.742Z,78.91
2018-07-09T08:39:34.766Z,77.45
2018-07-09T08:40:34.784Z,76.72
2018-07-09T08:41:34.804Z,76.75
2018-07-09T08:42:34.833Z,75.43
2018-07-09T08:43:34.848Z,75.78
2018-07-09T08:44:34.874Z,75.72
2018-07-09T08:45:34.893Z,74.75
2018-07-09T08:46:34.917Z,75.04
2018-07-09T08:47:34.931Z,75.57
2018-07-09T08:48:34.957Z,73.14
2018-07-09T08:49:34.974Z,73.37
2018-07-09T08:50:35.000Z,73.27
2018-07-09T08:51:35.017Z,73.18
2018-07-09T08:52:35.046Z,74.21
2018-07-09T08:53:35.060Z,74.40
2018-07-09T08:54:35.163Z,73.37
2018-07-09T08:55:35.292Z,73.37
2018-07-09T08:56:35.126Z,73.37
2018-07-09T08:57:35.159Z,73.66
2018-07-09T08:58:35.169Z,72.69
2018-07-09T08:59:35.194Z,72.59
2018-07-09T09:00:35.295Z,73.37
2018-07-09T09:01:35.234Z,73.21
2018-07-09T09:02:35.261Z,73.30
2018-07-09T09:03:35.276Z,72.41
2018-07-09T09:04:35.304Z,70.72
2018-07-09T09:05:35.319Z,71.85
2018-07-09T09:06:35.347Z,72.04
2018-07-09T09:07:35.366Z,71.85
2018-07-09T09:08:35.438Z,71.94
2018-07-09T09:09:35.415Z,71.17
2018-07-09T09:10:35.436Z,71.59
2018-07-09T09:11:35.457Z,71.69
2018-07-09T09:12:35.482Z,70.75
2018-07-09T09:13:35.497Z,69.23
2018-07-09T09:14:35.525Z,67.60
2018-07-09T09:15:35.547Z,68.48
2018-07-09T09:16:35.623Z,69.26
2018-07-09T09:17:35.592Z,69.52
2018-07-09T09:18:35.611Z,69.91
2018-07-09T09:19:35.714Z,71.50
2018-07-09T09:20:35.710Z,72.78
2018-07-09T09:21:35.686Z,73.33
2018-07-09T09:22:35.701Z,74.65
2018-07-09T09:23:35.772Z,75.27
2018-07-09T09:24:35.750Z,73.46
2018-07-09T09:25:35.859Z,72.47
2018-07-09T09:26:35.841Z,70.56
2018-07-09T09:27:35.817Z,70.75
2018-07-09T09:28:35.841Z,72.33
2018-07-09T09:29:35.863Z,72.82
2018-07-09T09:30:35.880Z,73.18
2018-07-09T09:31:36.009Z,73.18
2018-07-09T09:32:35.933Z,74.17
2018-07-09T09:33:35.950Z,75.37
2018-07-09T09:34:35.976Z,75.62
2018-07-09T09:35:35.995Z,76.40
2018-07-09T09:36:36.017Z,77.04
2018-07-09T09:37:36.045Z,76.75
2018-07-09T09:38:36.112Z,75.98
2018-07-09T09:39:36.089Z,77.24
2018-07-09T09:40:36.106Z,76.83
2018-07-09T09:41:36.129Z,74.34
2018-07-09T09:42:36.155Z,73.30
2018-07-09T09:43:36.176Z,72.27
2018-07-09T09:45:36.219Z,71.04
2018-07-09T09:46:36.245Z,69.75
2018-07-09T09:47:36.266Z,69.26
2018-07-09T09:48:36.284Z,69.97
2018-07-09T09:49:36.307Z,71.59
2018-07-09T09:50:36.380Z,73.43
2018-07-09T09:51:36.357Z,76.52
2018-07-09T09:52:36.377Z,77.88
2018-07-09T09:53:36.399Z,76.69
2018-07-09T09:54:36.419Z,76.15
2018-07-09T09:55:36.454Z,74.34
2018-07-09T09:56:36.515Z,73.44
2018-07-09T09:57:36.495Z,71.98
2018-07-09T09:58:36.508Z,71.62
2018-07-09T09:59:36.535Z,71.62
2018-07-09T10:00:36.602Z,72.63
2018-07-09T10:01:36.679Z,72.82
2018-07-09T10:02:36.602Z,72.41
2018-07-09T10:03:36.625Z,70.68
2018-07-09T10:04:36.652Z,69.94
2018-07-09T10:05:36.665Z,68.74
2018-07-09T10:06:36.701Z,67.18
2018-07-09T10:07:36.715Z,68.38
2018-07-09T10:08:36.760Z,69.29
2018-07-09T10:09:36.763Z,71.17
2018-07-09T10:10:36.785Z,74.24
2018-07-09T10:11:36.806Z,74.98
2018-07-09T10:12:36.829Z,75.37
2018-07-09T10:13:36.847Z,74.44
2018-07-09T10:14:36.871Z,72.21
2018-07-09T10:15:36.896Z,71.17
2018-07-09T10:16:36.921Z,71.08
2018-07-09T10:17:36.939Z,70.20
2018-07-09T10:18:36.961Z,70.95
2018-07-09T10:19:36.992Z,71.23
2018-07-09T10:20:37.006Z,71.53
2018-07-09T10:21:37.030Z,70.92
2018-07-09T10:22:37.052Z,68.58
2018-07-09T10:23:37.095Z,70.17
2018-07-09T10:24:37.102Z,71.78
2018-07-09T10:25:37.203Z,72.56
2018-07-09T10:26:37.141Z,72.47
2018-07-09T10:27:37.165Z,73.24
2018-07-09T10:28:37.193Z,73.02
2018-07-09T10:29:37.217Z,74.05
2018-07-09T10:30:37.252Z,73.79
2018-07-09T10:31:37.258Z,72.88
2018-07-09T10:32:37.280Z,72.76
2018-07-09T10:33:37.312Z,70.23
2018-07-09T10:34:37.333Z,68.97
2018-07-09T10:35:37.349Z,69.26
2018-07-09T10:36:37.421Z,67.83
2018-07-09T10:37:37.459Z,67.67
2018-07-09T10:38:37.423Z,67.41
2018-07-09T10:39:37.467Z,65.39
2018-07-09T10:40:37.464Z,64.94
2018-07-09T10:41:37.494Z,63.21
2018-07-09T10:42:37.512Z,62.79
2018-07-09T10:43:37.553Z,63.28
2018-07-09T10:44:37.558Z,63.60
2018-07-09T10:45:37.582Z,63.54
2018-07-09T10:46:37.611Z,65.66
2018-07-09T10:47:37.633Z,65.98
2018-07-09T10:48:37.703Z,65.78
2018-07-09T10:49:37.677Z,65.69
2018-07-09T10:50:37.705Z,66.11
2018-07-09T10:51:37.727Z,67.61
2018-07-09T10:52:37.749Z,66.41
2018-07-09T10:53:37.777Z,65.26
2018-07-09T10:54:37.798Z,66.63
2018-07-09T10:55:37.874Z,67.28
2018-07-09T10:56:37.853Z,66.14
2018-07-09T10:57:37.870Z,66.24
2018-07-09T10:58:37.891Z,64.51
2018-07-09T10:59:37.916Z,65.63
2018-07-09T11:00:37.983Z,64.68
2018-07-09T11:01:38.014Z,68.90
2018-07-09T11:02:38.037Z,67.41
2018-07-09T11:03:38.010Z,66.86
2018-07-09T11:04:38.035Z,67.08
2018-07-09T11:05:38.064Z,67.90
2018-07-09T11:06:38.087Z,68.16
2018-07-09T11:07:38.108Z,66.27
2018-07-09T11:08:38.216Z,65.88
2018-07-09T11:09:38.213Z,63.87
2018-07-09T11:10:38.179Z,63.96
2018-07-09T11:11:38.201Z,62.92
2018-07-09T11:12:38.229Z,63.77
2018-07-09T11:13:38.306Z,64.65
2018-07-09T11:14:38.280Z,64.71
2018-07-09T11:15:38.297Z,64.65
2018-07-09T11:16:38.327Z,63.96
2018-07-09T11:17:38.348Z,63.09
2018-07-09T11:18:38.371Z,66.96
2018-07-09T11:19:38.450Z,69.17
2018-07-09T11:20:38.423Z,70.65
2018-07-09T11:21:38.495Z,70.85
2018-07-09T11:22:38.467Z,71.53
2018-07-09T11:23:38.492Z,70.46
2018-07-09T11:24:38.517Z,70.30
2018-07-09T11:25:38.545Z,70.04
2018-07-09T11:26:38.614Z,69.78
2018-07-09T11:27:38.593Z,68.23
2018-07-09T11:28:38.612Z,66.93
2018-07-09T11:29:38.640Z,65.98
2018-07-09T11:30:38.660Z,64.71
2018-07-09T11:31:38.735Z,64.22
2018-07-09T11:32:38.710Z,64.03
2018-07-09T11:33:38.737Z,64.84
2018-07-09T11:34:38.759Z,64.26
2018-07-09T11:35:38.779Z,63.41
2018-07-09T11:36:38.803Z,62.63
2018-07-09T11:37:38.862Z,61.74
2018-07-09T11:38:38.852Z,63.48
2018-07-09T11:39:38.943Z,63.77
2018-07-09T11:40:38.901Z,64.22
2018-07-09T11:41:38.929Z,65.66
2018-07-09T11:42:38.954Z,66.14
2018-07-09T11:43:38.972Z,67.15
2018-07-09T11:44:39.024Z,67.83
2018-07-09T11:45:39.097Z,66.14
2018-07-09T11:46:39.046Z,65.49
2018-07-09T11:47:39.068Z,64.36
2018-07-09T11:48:39.101Z,63.80
2018-07-09T11:49:39.122Z,61.68
2018-07-09T11:50:39.151Z,61.58
2018-07-09T11:51:39.488Z,62.79
2018-07-09T11:52:39.196Z,60.47
2018-07-09T11:53:39.218Z,60.57
2018-07-09T11:54:39.246Z,61.09
2018-07-09T11:55:39.269Z,62.40
2018-07-09T11:56:39.296Z,64.48
2018-07-09T11:57:39.352Z,64.26
2018-07-09T11:58:39.367Z,63.21
2018-07-09T11:59:39.365Z,63.54
2018-07-09T12:00:39.390Z,62.16
2018-07-09T12:01:39.417Z,62.13
2018-07-09T12:02:39.442Z,60.99
2018-07-09T12:03:39.481Z,61.58
2018-07-09T12:04:39.545Z,62.07
2018-07-09T12:05:39.510Z,61.22
2018-07-09T12:06:39.535Z,60.24
2018-07-09T12:07:39.609Z,60.57
2018-07-09T12:08:39.584Z,58.25
2018-07-09T12:09:39.676Z,58.87
2018-07-09T12:10:39.638Z,62.89
2018-07-09T12:11:39.661Z,64.45
2018-07-09T12:12:39.686Z,65.66
2018-07-09T12:13:39.710Z,64.42
2018-07-09T12:14:39.732Z,63.87
2018-07-09T12:15:39.755Z,62.82
2018-07-09T12:16:39.787Z,62.04
2018-07-09T12:17:39.805Z,61.80
2018-07-09T12:19:39.875Z,61.25
2018-07-09T12:20:39.884Z,60.89
2018-07-09T12:21:39.952Z,58.40
2018-07-09T12:22:39.938Z,56.73
2018-07-09T12:23:39.958Z,56.07
2018-07-09T12:24:39.979Z,55.29
2018-07-09T12:25:40.007Z,55.98
2018-07-09T12:26:40.030Z,56.81
2018-07-09T12:27:40.054Z,59.27
2018-07-09T12:28:40.088Z,60.60
2018-07-09T12:29:40.112Z,62.79
2018-07-09T12:30:40.131Z,63.09
2018-07-09T12:31:40.158Z,62.60
2018-07-09T12:32:40.184Z,61.16
2018-07-09T12:33:40.208Z,61.29
2018-07-09T12:34:40.232Z,61.16
2018-07-09T12:35:40.258Z,62.76
2018-07-09T12:36:40.278Z,63.28
2018-07-09T12:37:40.309Z,61.82
2018-07-09T12:38:40.339Z,65.26
2018-07-09T12:39:40.351Z,65.17
2018-07-09T12:40:40.376Z,65.23
2018-07-09T12:41:40.403Z,63.18
2018-07-09T12:42:40.434Z,62.23
2018-07-09T12:43:40.458Z,62.99
2018-07-09T12:44:40.481Z,63.77
2018-07-09T12:45:40.499Z,62.85
2018-07-09T12:46:40.530Z,60.34
2018-07-09T12:47:40.549Z,61.23
2018-07-09T12:48:40.577Z,63.21
2018-07-09T12:49:40.608Z,66.93
2018-07-09T12:50:40.628Z,69.32
2018-07-09T12:51:40.656Z,69.65
2018-07-09T12:52:40.674Z,67.51
2018-07-09T12:53:40.704Z,64.65
2018-07-09T12:54:40.734Z,67.50
2018-07-09T12:55:40.777Z,67.64